Time;durP1;ratioP1;P1;durP2;ratioP2;P2;SDS_P1;SDS_P2;PMS_P1;PMS_P2;Temp;Humidity;BMP_temperature;BMP_pressure;BME280_temperature;BME280_humidity;BME280_pressure;Samples;Min_cycle;Max_cycle;Signal;HPM_P1;HPM_P2
2022/06/16 00:03:25;;;;;;;8.90;6.40;;;;;;;10.56;71.28;100123.20;213773;1272;140063;-68
2022/06/16 00:08:29;;;;;;;7.50;6.70;;;;;;;10.46;71.69;100124.71;213484;1271;139565;-64
2022/06/16 00:13:39;;;;;;;7.10;6.10;;;;;;;10.37;71.94;100127.58;213333;1274;142313;-65
2022/06/16 00:18:44;;;;;;;4.90;4.50;;;;;;;10.29;72.21;100124.94;214025;1274;140832;-66
2022/06/16 00:23:49;;;;;;;7.70;4.90;;;;;;;10.26;72.73;100121.35;214012;1274;141604;-65
2022/06/16 00:28:54;;;;;;;7.20;5.40;;;;;;;10.27;73.19;100122.33;214735;1271;139849;-64
2022/06/16 00:33:58;;;;;;;6.80;5.50;;;;;;;10.37;73.32;100113.15;215324;1271;141098;-65
2022/06/16 00:39:02;;;;;;;8.20;4.80;;;;;;;10.47;73.33;100113.39;214800;1271;141113;-64
2022/06/16 00:44:38;;;;;;;7.60;4.80;;;;;;;10.55;73.16;100104.71;214725;1271;141035;-66
2022/06/16 00:49:44;;;;;;;5.20;4.50;;;;;;;10.63;73.14;100100.52;215088;1272;140519;-65
2022/06/16 00:55:14;;;;;;;10.80;7.30;;;;;;;10.64;73.12;100098.21;216326;1272;141207;-68
2022/06/16 01:00:44;;;;;;;8.30;5.30;;;;;;;10.71;73.35;100098.70;216006;1273;141094;-67
2022/06/16 01:05:49;;;;;;;5.90;4.80;;;;;;;10.76;73.18;100093.96;216320;1271;141013;-65
2022/06/16 01:10:58;;;;;;;12.30;6.30;;;;;;;10.78;72.97;100091.58;215805;1274;140853;-66
2022/06/16 01:16:34;;;;;;;10.40;6.20;;;;;;;10.81;72.98;100088.98;216244;1272;140667;-65
2022/06/16 01:21:58;;;;;;;11.10;6.60;;;;;;;10.75;72.80;100086.86;215743;1273;139576;-63
2022/06/16 01:27:11;;;;;;;5.60;5.10;;;;;;;10.73;72.67;100088.72;216318;1273;141205;-68
2022/06/16 01:32:31;;;;;;;8.40;5.90;;;;;;;10.57;72.25;100090.42;215053;1273;141125;-65
2022/06/16 01:37:56;;;;;;;5.50;4.70;;;;;;;10.42;72.53;100088.85;215118;1274;140725;-66
2022/06/16 01:43:06;;;;;;;10.10;6.50;;;;;;;10.37;72.90;100089.58;215195;1273;144423;-64
2022/06/16 01:48:13;;;;;;;6.50;5.60;;;;;;;10.37;73.11;100084.91;215003;1272;142709;-66
2022/06/16 01:53:26;;;;;;;10.20;5.20;;;;;;;10.39;73.18;100080.90;213197;1274;141660;-65
2022/06/16 01:58:35;;;;;;;6.90;6.30;;;;;;;10.46;73.68;100081.08;213693;1273;142127;-65
2022/06/16 02:03:46;;;;;;;14.70;6.60;;;;;;;10.54;73.97;100073.65;213426;1272;142633;-65
2022/06/16 02:08:56;;;;;;;8.80;6.20;;;;;;;10.66;74.65;100069.34;214935;1272;142557;-66
2022/06/16 02:14:30;;;;;;;8.80;7.30;;;;;;;10.82;74.85;100064.63;214361;1273;140210;-65
2022/06/16 02:19:36;;;;;;;7.90;7.10;;;;;;;10.91;74.82;100062.45;214603;1272;142576;-65
2022/06/16 02:24:41;;;;;;;11.50;6.40;;;;;;;11.01;75.06;100063.83;214313;1273;139537;-67
2022/06/16 02:29:45;;;;;;;8.20;7.40;;;;;;;11.15;75.30;100055.33;214486;1273;140767;-65
2022/06/16 02:35:12;;;;;;;12.40;7.40;;;;;;;11.29;75.24;100060.52;213341;1274;142226;-65
2022/06/16 02:40:34;;;;;;;10.50;6.40;;;;;;;11.35;75.01;100060.80;215008;1273;140694;-65
2022/06/16 02:45:51;;;;;;;10.40;6.80;;;;;;;11.40;74.95;100063.80;213844;1272;142578;-65
2022/06/16 02:51:31;;;;;;;7.20;5.60;;;;;;;11.47;75.16;100062.84;216122;1274;140463;-66
2022/06/16 02:56:41;;;;;;;8.50;7.80;;;;;;;11.54;75.29;100060.98;215480;1272;141297;-66
2022/06/16 03:01:47;;;;;;;12.00;8.30;;;;;;;11.65;75.27;100055.88;216272;1272;141743;-65
2022/06/16 03:06:51;;;;;;;16.00;9.10;;;;;;;11.78;75.08;100055.59;216217;1272;141043;-68
2022/06/16 03:11:54;;;;;;;11.00;7.90;;;;;;;11.91;74.80;100056.45;216302;1271;142003;-67
2022/06/16 03:16:58;;;;;;;9.50;7.10;;;;;;;12.05;74.74;100059.70;216114;1272;141625;-66
2022/06/16 03:22:03;;;;;;;12.60;7.40;;;;;;;12.16;74.72;100055.54;215040;1272;142173;-64
2022/06/16 03:27:07;;;;;;;10.70;9.60;;;;;;;12.26;74.95;100061.54;214020;1273;141329;-64
2022/06/16 03:32:11;;;;;;;8.60;7.70;;;;;;;12.37;74.81;100055.88;215567;1271;140929;-65
2022/06/16 03:37:16;;;;;;;9.90;9.00;;;;;;;12.49;74.96;100053.08;215355;1271;141054;-67
2022/06/16 03:42:20;;;;;;;7.00;6.20;;;;;;;12.63;74.41;100056.04;215185;1271;142003;-64
2022/06/16 03:47:25;;;;;;;6.70;5.80;;;;;;;12.71;74.31;100051.16;214250;1271;140461;-63
2022/06/16 03:52:29;;;;;;;10.60;7.00;;;;;;;12.75;73.87;100049.03;214142;1272;140195;-64
2022/06/16 03:57:33;;;;;;;8.30;7.60;;;;;;;12.79;74.04;100046.39;213566;1273;140733;-64
2022/06/16 04:02:37;;;;;;;6.80;6.30;;;;;;;12.88;74.27;100046.73;214669;1272;140225;-65
2022/06/16 04:07:42;;;;;;;10.00;7.40;;;;;;;12.94;74.09;100047.26;214869;1271;140381;-66
2022/06/16 04:12:47;;;;;;;6.30;5.70;;;;;;;13.00;73.87;100044.43;214561;1272;140212;-65
2022/06/16 04:17:51;;;;;;;36.20;7.90;;;;;;;13.15;74.16;100045.06;213404;1273;141515;-65
2022/06/16 04:22:56;;;;;;;6.90;6.20;;;;;;;13.39;73.64;100034.52;214951;1271;143397;-66
2022/06/16 04:28:02;;;;;;;9.10;6.70;;;;;;;13.58;73.43;100033.11;214894;1271;141570;-65
2022/06/16 04:33:08;;;;;;;7.30;6.40;;;;;;;13.68;73.30;100029.08;213908;1271;140020;-65
2022/06/16 04:38:13;;;;;;;8.00;7.20;;;;;;;13.73;73.00;100021.91;215074;1271;140757;-65
2022/06/16 04:43:17;;;;;;;7.50;6.70;;;;;;;13.81;72.72;100020.14;213796;1271;139669;-66
2022/06/16 04:48:22;;;;;;;6.90;5.60;;;;;;;14.13;72.30;100021.95;215388;1271;140404;-67
2022/06/16 04:53:26;;;;;;;6.10;5.50;;;;;;;14.86;71.74;100019.86;215456;1271;141051;-67
2022/06/16 04:58:30;;;;;;;6.10;5.50;;;;;;;15.38;70.88;100014.98;216257;1271;140090;-64
2022/06/16 05:03:34;;;;;;;6.60;6.00;;;;;;;15.77;69.55;100013.13;214559;1271;143521;-65
2022/06/16 05:08:43;;;;;;;6.00;5.50;;;;;;;16.81;67.92;100010.66;216317;1271;140635;-66
2022/06/16 05:13:47;;;;;;;6.10;5.50;;;;;;;19.97;64.21;100004.46;213913;1273;141056;-66
2022/06/16 05:18:52;;;;;;;5.20;4.80;;;;;;;23.44;60.31;100001.30;216251;1273;140588;-66
2022/06/16 05:23:56;;;;;;;5.80;4.70;;;;;;;25.90;55.89;99996.87;214623;1273;139945;-65
2022/06/16 05:29:00;;;;;;;4.60;4.20;;;;;;;27.92;52.27;100000.65;215353;1272;139680;-65
2022/06/16 05:34:04;;;;;;;4.00;3.60;;;;;;;29.43;49.11;99997.39;215611;1271;140757;-65
2022/06/16 05:39:09;;;;;;;2.90;2.70;;;;;;;30.47;46.96;99996.90;215317;1271;139350;-65
2022/06/16 05:44:13;;;;;;;;;;;;;;;29.74;45.23;99999.82;214339;1271;140050;-65
2022/06/16 05:49:18;;;;;;;4.10;3.00;;;;;;;30.72;43.52;99993.53;215358;1272;125959;-65
2022/06/16 05:54:23;;;;;;;3.40;3.00;;;;;;;32.42;42.18;99990.89;214685;1273;141039;-65
2022/06/16 05:59:27;;;;;;;3.70;2.30;;;;;;;34.39;40.23;99989.54;215065;1271;139809;-65
2022/06/16 06:04:35;;;;;;;3.50;2.20;;;;;;;35.79;38.13;99986.27;214844;1271;140317;-66
2022/06/16 06:20:49;;;;;;;2.30;2.10;;;;;;;35.26;33.05;99987.36;213866;1271;141041;-66
2022/06/16 06:25:55;;;;;;;2.20;1.90;;;;;;;34.24;32.82;99975.81;214352;1271;140690;-65
2022/06/16 06:31:00;;;;;;;1.70;1.40;;;;;;;33.97;33.82;99972.20;214302;1271;143357;-65
2022/06/16 06:36:05;;;;;;;2.60;1.70;;;;;;;34.38;33.21;99968.79;213898;1271;140170;-65
2022/06/16 06:41:13;;;;;;;1.70;1.60;;;;;;;34.07;32.48;99959.14;213574;1271;140494;-66
2022/06/16 06:46:18;;;;;;;3.00;2.00;;;;;;;34.49;33.03;99961.08;214061;1271;140297;-66
2022/06/16 06:51:26;;;;;;;2.70;1.70;;;;;;;35.21;32.87;99965.35;215046;1271;141667;-66
2022/06/16 06:56:31;;;;;;;2.00;1.90;;;;;;;34.78;31.47;99964.47;215714;1271;142000;-66
2022/06/16 07:01:35;;;;;;;2.50;2.20;;;;;;;34.34;31.32;99953.59;216425;1271;139162;-67
2022/06/16 07:06:41;;;;;;;2.00;1.80;;;;;;;34.24;31.05;99951.25;216202;1271;140514;-67
2022/06/16 07:11:45;;;;;;;1.30;1.30;;;;;;;33.99;31.81;99949.23;216296;1271;139917;-66
2022/06/16 07:16:50;;;;;;;2.30;1.70;;;;;;;34.47;31.32;99945.48;216264;1273;140602;-68
2022/06/16 07:21:55;;;;;;;3.60;1.80;;;;;;;34.24;30.06;99939.66;216511;1271;140169;-68
2022/06/16 07:27:00;;;;;;;1.60;1.50;;;;;;;32.83;31.61;99939.75;214818;1272;141259;-65
2022/06/16 07:32:05;;;;;;;1.70;1.60;;;;;;;32.21;32.15;99939.81;215243;1271;139682;-66
2022/06/16 07:37:11;;;;;;;2.30;1.90;;;;;;;31.82;33.25;99929.84;213364;1273;140239;-64
2022/06/16 07:42:15;;;;;;;2.30;1.90;;;;;;;31.79;33.91;99931.30;213573;1273;151615;-66
2022/06/16 07:47:20;;;;;;;2.30;2.10;;;;;;;31.80;34.33;99928.77;214039;1273;140778;-68
2022/06/16 07:52:26;;;;;;;2.30;1.90;;;;;;;31.61;34.05;99927.70;214196;1273;140166;-66
2022/06/16 07:57:34;;;;;;;3.80;1.90;;;;;;;31.03;34.25;99914.23;214724;1272;139286;-69
2022/06/16 08:02:40;;;;;;;4.70;2.50;;;;;;;30.68;34.72;99908.12;213482;1271;140162;-67
2022/06/16 08:07:48;;;;;;;4.10;2.70;;;;;;;30.08;34.61;99910.11;214577;1274;139796;-68
2022/06/16 08:12:53;;;;;;;3.00;2.40;;;;;;;29.23;34.91;99906.11;214125;1271;139361;-67
2022/06/16 08:17:59;;;;;;;3.00;2.80;;;;;;;28.13;35.66;99904.95;213872;1274;140845;-68
2022/06/16 08:23:04;;;;;;;6.10;2.30;;;;;;;28.15;38.03;99907.84;213633;1271;140607;-66
2022/06/16 08:28:12;;;;;;;5.80;2.80;;;;;;;28.50;37.06;99911.57;213656;1274;140349;-66
2022/06/16 08:33:18;;;;;;;7.10;2.80;;;;;;;28.46;37.01;99911.09;213587;1271;231001;-68
2022/06/16 08:38:23;;;;;;;3.20;2.60;;;;;;;28.58;37.27;99908.20;214405;1271;140371;-66
2022/06/16 08:43:31;;;;;;;3.90;2.20;;;;;;;28.62;37.73;99905.55;214829;1269;140993;-67
2022/06/16 08:48:49;;;;;;;4.60;2.50;;;;;;;28.61;37.86;99904.66;215474;1274;140825;-67
2022/06/16 08:54:04;;;;;;;4.10;3.00;;;;;;;28.68;38.72;99901.79;214785;1271;140447;-66
2022/06/16 08:59:30;;;;;;;4.60;3.00;;;;;;;28.85;38.15;99896.86;214864;1271;141504;-66
2022/06/16 09:04:43;;;;;;;6.20;2.70;;;;;;;28.54;37.73;99899.23;216376;1271;139967;-67
2022/06/16 09:10:26;;;;;;;7.20;2.90;;;;;;;28.34;37.80;99894.38;214769;1271;139798;-67
2022/06/16 09:15:42;;;;;;;2.90;2.70;;;;;;;28.40;38.79;99890.77;215631;1271;139838;-65
2022/06/16 09:21:07;;;;;;;2.80;2.50;;;;;;;28.73;38.28;99881.03;215305;1271;139872;-65
2022/06/16 09:26:44;;;;;;;3.40;2.20;;;;;;;29.03;38.52;99878.74;215054;1274;141000;-65
2022/06/16 09:31:55;;;;;;;3.30;3.00;;;;;;;28.87;38.11;99879.84;215254;1271;140028;-65
2022/06/16 09:37:08;;;;;;;5.50;2.60;;;;;;;28.73;38.21;99878.20;215872;1271;139427;-65
2022/06/16 09:42:38;;;;;;;3.30;2.40;;;;;;;28.86;38.25;99873.60;218722;1263;144204;-64
2022/06/16 09:48:05;;;;;;;5.50;3.30;;;;;;;28.81;38.40;99874.72;215694;1276;139745;-65
2022/06/16 09:53:24;;;;;;;5.80;3.30;;;;;;;28.74;38.45;99872.57;215497;1277;140600;-67
2022/06/16 09:58:55;;;;;;;2.30;2.20;;;;;;;28.61;38.52;99872.54;213804;1276;139695;-65
2022/06/16 10:04:05;;;;;;;3.40;2.80;;;;;;;28.82;38.92;99870.58;213877;1276;141596;-65
2022/06/16 10:09:19;;;;;;;4.60;3.00;;;;;;;28.87;38.93;99870.19;213447;1276;140002;-66
2022/06/16 10:14:40;;;;;;;3.80;2.90;;;;;;;29.00;38.76;99862.68;213498;1277;139855;-66
2022/06/16 10:19:48;;;;;;;3.00;2.60;;;;;;;28.96;38.36;99861.33;213536;1277;140500;-65
2022/06/16 10:24:59;;;;;;;3.50;2.80;;;;;;;28.92;38.81;99860.83;213564;1275;141209;-65
2022/06/16 10:30:07;;;;;;;5.20;3.20;;;;;;;28.92;38.71;99858.23;213350;1277;144971;-65
2022/06/16 10:35:20;;;;;;;5.90;3.20;;;;;;;29.06;38.77;99858.42;213981;1276;139698;-65
2022/06/16 10:40:32;;;;;;;5.20;3.00;;;;;;;29.38;39.08;99854.48;213434;1277;139964;-65
2022/06/16 10:46:20;;;;;;;11.40;3.50;;;;;;;29.46;38.20;99854.34;213361;1276;141376;-65
2022/06/16 10:51:29;;;;;;;5.20;2.50;;;;;;;28.99;38.26;99858.19;213273;1276;141304;-64
2022/06/16 10:56:33;;;;;;;5.90;3.10;;;;;;;28.93;38.29;99860.93;213398;1276;140690;-65
2022/06/16 11:01:53;;;;;;;5.40;3.40;;;;;;;28.96;38.53;99856.16;213680;1276;141390;-65
2022/06/16 11:06:59;;;;;;;19.40;4.10;;;;;;;29.01;39.17;99849.99;213359;1277;140622;-65
2022/06/16 11:12:18;;;;;;;3.80;3.40;;;;;;;29.18;38.66;99844.20;213103;1277;206331;-65
2022/06/16 11:17:25;;;;;;;3.40;3.20;;;;;;;28.95;39.39;99844.44;213486;1276;139975;-64
2022/06/16 11:22:41;;;;;;;2.90;2.60;;;;;;;28.54;38.70;99839.61;215903;1277;140068;-64
2022/06/16 11:27:50;;;;;;;3.90;3.00;;;;;;;28.02;39.16;99834.33;215829;1276;139445;-66
2022/06/16 11:32:55;;;;;;;3.90;3.30;;;;;;;28.26;40.27;99827.02;216106;1276;140315;-65
2022/06/16 11:38:21;;;;;;;5.60;4.00;;;;;;;28.82;40.16;99824.75;216158;1276;140438;-66
2022/06/16 11:43:54;;;;;;;3.10;2.90;;;;;;;29.05;39.82;99819.65;216197;1276;139517;-67
2022/06/16 11:49:34;;;;;;;4.00;3.30;;;;;;;28.93;38.36;99814.25;215736;1276;141612;-65
2022/06/16 11:55:02;;;;;;;4.60;2.80;;;;;;;28.69;38.31;99808.33;215639;1275;141218;-65
2022/06/16 12:00:10;;;;;;;4.10;3.30;;;;;;;28.87;38.74;99802.66;213475;1276;140744;-65
2022/06/16 12:05:36;;;;;;;3.10;2.90;;;;;;;28.93;37.99;99795.41;213770;1277;140088;-66
2022/06/16 12:10:43;;;;;;;4.00;3.60;;;;;;;28.55;38.01;99786.73;213558;1277;139959;-64
2022/06/16 12:15:59;;;;;;;6.60;3.30;;;;;;;28.53;38.33;99772.81;213898;1277;139328;-63
2022/06/16 12:21:44;;;;;;;3.70;3.50;;;;;;;28.56;38.57;99765.14;213584;1277;139372;-66
2022/06/16 12:26:57;;;;;;;4.10;3.60;;;;;;;28.73;38.63;99758.59;213708;1276;139848;-65
2022/06/16 12:32:29;;;;;;;3.40;2.70;;;;;;;28.45;38.68;99759.95;213696;1277;139764;-65
2022/06/16 12:37:53;;;;;;;4.20;2.90;;;;;;;28.10;38.84;99759.15;213407;1277;141969;-65
2022/06/16 12:43:09;;;;;;;3.90;3.10;;;;;;;27.73;38.95;99750.79;213104;1277;142143;-65
2022/06/16 12:48:23;;;;;;;2.80;2.70;;;;;;;27.59;39.61;99738.79;213385;1277;139668;-65
2022/06/16 12:53:46;;;;;;;4.80;2.70;;;;;;;27.08;39.52;99727.05;213397;1277;140162;-64
2022/06/16 12:58:58;;;;;;;3.40;3.20;;;;;;;27.31;40.61;99714.19;213363;1276;230260;-64
2022/06/16 13:04:14;;;;;;;5.40;3.10;;;;;;;27.44;40.45;99706.20;213811;1277;140147;-63
2022/06/16 13:09:19;;;;;;;3.10;2.90;;;;;;;27.46;39.86;99692.28;213526;1277;140122;-65
2022/06/16 13:14:27;;;;;;;3.00;2.80;;;;;;;27.56;39.65;99681.57;213478;1277;141644;-65
2022/06/16 13:19:50;;;;;;;4.40;3.10;;;;;;;27.54;39.89;99680.04;213534;1277;141514;-66
2022/06/16 13:24:58;;;;;;;2.50;2.30;;;;;;;27.71;39.43;99669.69;215832;1277;141240;-66
2022/06/16 13:30:10;;;;;;;2.90;2.40;;;;;;;27.92;39.88;99673.91;215944;1277;139727;-67
2022/06/16 13:35:30;;;;;;;2.10;1.90;;;;;;;28.32;38.65;99669.68;215745;1276;141231;-67
2022/06/16 13:40:40;;;;;;;6.20;2.70;;;;;;;28.51;37.32;99653.83;215754;1277;139614;-67
2022/06/16 13:46:03;;;;;;;2.30;2.20;;;;;;;28.39;38.14;99648.23;215668;1277;140347;-68
2022/06/16 13:51:33;;;;;;;3.20;2.90;;;;;;;27.88;38.25;99644.84;215391;1276;141179;-67
2022/06/16 13:56:41;;;;;;;2.50;2.30;;;;;;;27.18;38.76;99636.96;213475;1277;142419;-65
2022/06/16 14:02:08;;;;;;;3.80;2.60;;;;;;;26.56;39.58;99639.16;213408;1277;140718;-65
2022/06/16 14:07:18;;;;;;;7.70;4.50;;;;;;;26.15;40.51;99650.88;213152;1276;151190;-66
2022/06/16 14:12:57;;;;;;;8.00;5.00;;;;;;;25.73;42.62;99696.54;213520;1277;139201;-65
2022/06/16 14:18:15;;;;;;;13.20;5.80;;;;;;;24.63;45.40;99780.61;212632;1277;1210448;-66
2022/06/16 14:23:40;;;;;;;;;;;;;;;22.88;47.24;99778.92;213504;1277;140326;-67
2022/06/16 14:28:48;;;;;;;5.10;3.00;;;;;;;21.36;49.13;99744.20;214015;1277;126084;-66
2022/06/16 14:34:00;;;;;;;3.40;3.10;;;;;;;20.78;51.46;99737.04;213030;1277;139569;-66
2022/06/16 14:39:11;;;;;;;7.10;3.50;;;;;;;20.41;52.90;99725.39;213284;1277;141032;-65
2022/06/16 14:44:42;;;;;;;4.10;3.70;;;;;;;20.04;54.33;99701.87;213249;1276;140298;-65
2022/06/16 14:49:57;;;;;;;3.60;3.10;;;;;;;20.15;56.36;99699.66;213257;1276;139473;-65
2022/06/16 14:55:28;;;;;;;5.50;3.50;;;;;;;20.47;57.64;99702.15;213144;1277;139742;-66
2022/06/16 15:00:42;;;;;;;3.50;2.80;;;;;;;21.00;57.89;99704.27;213257;1276;140603;-67
2022/06/16 15:05:47;;;;;;;10.60;3.90;;;;;;;21.56;58.22;99691.08;213295;1276;139810;-66
2022/06/16 15:10:54;;;;;;;3.80;3.50;;;;;;;22.18;58.15;99703.70;213405;1276;140943;-65
2022/06/16 15:16:07;;;;;;;4.30;3.30;;;;;;;22.70;57.50;99710.75;213143;1276;140128;-66
2022/06/16 15:21:14;;;;;;;6.10;4.10;;;;;;;22.91;57.01;99722.65;213256;1277;140657;-66
2022/06/16 15:26:26;;;;;;;3.80;3.30;;;;;;;22.97;56.67;99717.21;213545;1276;140284;-66
2022/06/16 15:31:33;;;;;;;4.00;3.60;;;;;;;22.95;56.47;99711.11;215859;1276;150082;-66
2022/06/16 15:37:16;;;;;;;4.40;3.90;;;;;;;22.86;56.01;99714.17;215765;1276;140223;-67
2022/06/16 15:42:25;;;;;;;3.30;3.10;;;;;;;22.76;56.62;99720.73;215782;1276;141739;-66
2022/06/16 15:47:35;;;;;;;2.80;2.60;;;;;;;22.58;56.45;99715.92;215792;1276;140110;-66
2022/06/16 15:52:44;;;;;;;3.70;2.70;;;;;;;22.27;56.35;99715.63;215895;1276;139672;-66
2022/06/16 15:57:51;;;;;;;2.80;2.60;;;;;;;22.06;57.32;99726.20;213952;1276;139789;-67
2022/06/16 16:02:59;;;;;;;3.50;2.80;;;;;;;22.07;58.10;99728.63;213576;1276;139734;-67
2022/06/16 16:08:08;;;;;;;3.60;3.10;;;;;;;22.03;57.57;99724.34;213814;1276;139496;-68
2022/06/16 16:13:16;;;;;;;2.90;2.80;;;;;;;21.98;57.49;99711.73;213399;1276;139995;-65
2022/06/16 16:18:25;;;;;;;2.20;2.10;;;;;;;22.08;57.72;99703.45;213104;1276;139432;-66
2022/06/16 16:23:36;;;;;;;2.10;2.00;;;;;;;22.12;57.30;99706.73;213078;1276;139911;-65
2022/06/16 16:29:02;;;;;;;2.40;2.30;;;;;;;22.21;57.89;99720.24;213583;1277;140677;-64
2022/06/16 16:34:10;;;;;;;3.30;3.00;;;;;;;22.29;57.95;99718.24;213243;1276;140814;-65
2022/06/16 16:39:29;;;;;;;2.90;2.70;;;;;;;22.39;58.38;99724.42;213202;1276;140832;-66
2022/06/16 16:44:40;;;;;;;4.80;2.70;;;;;;;22.36;57.87;99746.40;213326;1276;139383;-67
2022/06/16 16:49:53;;;;;;;8.70;2.90;;;;;;;22.16;58.36;99763.27;213248;1276;140458;-66
2022/06/16 16:55:06;;;;;;;3.80;2.20;;;;;;;21.79;58.86;99770.23;213243;1276;140669;-65
2022/06/16 17:00:21;;;;;;;3.60;3.00;;;;;;;21.45;59.99;99781.84;213083;1276;140381;-66
2022/06/16 17:05:26;;;;;;;2.50;2.30;;;;;;;21.37;61.03;99783.05;213351;1276;140188;-66
2022/06/16 17:10:35;;;;;;;5.30;3.20;;;;;;;21.43;61.71;99792.55;213052;1276;140742;-65
2022/06/16 17:15:39;;;;;;;3.10;2.90;;;;;;;21.45;62.31;99798.02;215706;1276;140536;-66
2022/06/16 17:20:43;;;;;;;5.20;3.00;;;;;;;21.57;62.94;99800.83;215784;1276;140589;-64
2022/06/16 17:25:47;;;;;;;3.40;2.90;;;;;;;21.54;62.93;99810.86;215631;1276;141636;-64
2022/06/16 17:30:50;;;;;;;2.70;2.60;;;;;;;21.32;61.83;99832.36;215694;1274;140319;-64
2022/06/16 17:35:55;;;;;;;3.00;2.90;;;;;;;20.96;60.83;99838.66;215390;1276;141876;-64
2022/06/16 17:40:59;;;;;;;3.10;2.90;;;;;;;20.70;60.65;99837.27;215929;1276;140007;-64
2022/06/16 17:46:03;;;;;;;4.80;3.80;;;;;;;20.61;61.44;99843.70;214681;1276;139810;-66
2022/06/16 17:51:13;;;;;;;3.50;2.80;;;;;;;20.54;61.87;99852.01;213245;1276;140974;-66
2022/06/16 18:02:02;;;;;;;3.50;2.50;;;;;;;19.97;61.71;99861.63;212312;1283;140256;-65
2022/06/16 18:07:07;;;;;;;3.90;3.50;;;;;;;19.81;62.24;99868.52;213085;1276;139505;-66
2022/06/16 18:12:19;;;;;;;3.90;3.60;;;;;;;19.79;62.34;99874.02;213418;1275;140632;-65
2022/06/16 18:17:23;;;;;;;4.30;4.00;;;;;;;19.69;62.67;99879.77;212988;1276;151708;-66
2022/06/16 18:22:36;;;;;;;3.30;3.10;;;;;;;19.68;62.83;99890.70;213218;1276;140105;-66
2022/06/16 18:27:40;;;;;;;3.70;3.50;;;;;;;19.68;62.84;99882.21;213326;1276;140453;-66
2022/06/16 18:32:48;;;;;;;4.00;3.40;;;;;;;19.57;62.68;99887.50;213563;1276;140339;-66
2022/06/16 18:38:00;;;;;;;5.80;3.30;;;;;;;19.42;62.60;99887.39;213236;1276;140948;-66
2022/06/16 18:43:19;;;;;;;3.10;2.90;;;;;;;19.25;62.40;99890.19;213253;1276;140079;-67
2022/06/16 18:48:25;;;;;;;4.30;3.40;;;;;;;19.12;62.52;99897.68;213177;1276;139281;-66
2022/06/16 18:53:31;;;;;;;3.20;2.90;;;;;;;19.08;63.09;99894.75;213770;1276;141738;-65
2022/06/16 18:58:38;;;;;;;4.20;3.80;;;;;;;19.01;63.52;99903.04;213430;1276;141343;-66
2022/06/16 19:03:47;;;;;;;4.00;3.30;;;;;;;18.88;63.74;99911.40;213490;1276;140867;-65
2022/06/16 19:08:51;;;;;;;3.50;3.20;;;;;;;18.60;63.84;99911.89;213392;1276;140097;-66
2022/06/16 19:13:57;;;;;;;4.10;3.70;;;;;;;18.40;64.41;99926.34;213105;1276;140878;-65
2022/06/16 19:19:04;;;;;;;3.80;3.50;;;;;;;18.32;64.72;99936.45;213572;1276;140496;-66
2022/06/16 19:24:09;;;;;;;3.70;3.40;;;;;;;18.18;65.31;99942.37;215371;1276;140394;-65
2022/06/16 19:29:14;;;;;;;4.40;3.20;;;;;;;18.15;65.77;99945.79;215832;1276;140288;-66
2022/06/16 19:34:18;;;;;;;3.40;3.10;;;;;;;18.14;66.07;99950.81;215927;1276;140661;-65
2022/06/16 19:39:30;;;;;;;4.70;3.70;;;;;;;17.99;65.88;99948.41;215790;1276;141167;-65
2022/06/16 19:55:24;;;;;;;5.10;3.40;;;;;;;17.60;67.10;99952.77;214008;1276;140296;-65
2022/06/16 20:00:33;;;;;;;18.40;4.10;;;;;;;17.45;67.29;99952.88;213278;1276;140828;-63
2022/06/16 20:05:38;;;;;;;8.30;4.90;;;;;;;17.27;67.91;99958.00;213357;1276;222526;-66
2022/06/16 20:10:45;;;;;;;7.40;4.70;;;;;;;17.22;68.27;99972.83;213678;1274;141697;-64
2022/06/16 20:15:50;;;;;;;4.70;4.20;;;;;;;17.15;68.61;99967.71;213119;1276;143670;-65
2022/06/16 20:21:17;;;;;;;5.90;5.30;;;;;;;17.07;68.64;99968.55;213179;1276;141126;-64
2022/06/16 20:26:21;;;;;;;4.80;4.30;;;;;;;17.00;69.08;99976.37;213540;1276;140266;-65
2022/06/16 20:31:27;;;;;;;6.50;4.50;;;;;;;16.87;68.88;99972.39;213298;1276;140992;-64
2022/06/16 20:36:33;;;;;;;6.70;4.90;;;;;;;16.76;69.27;99973.75;213305;1276;141256;-66
2022/06/16 20:47:04;;;;;;;5.90;5.20;;;;;;;16.59;69.60;99978.34;213651;1277;141082;-65
2022/06/16 20:52:13;;;;;;;9.00;4.60;;;;;;;16.45;69.56;99974.08;213635;1276;139827;-66
2022/06/16 21:02:43;;;;;;;5.10;4.70;;;;;;;16.23;69.97;99979.90;213361;1276;139918;-64
2022/06/16 21:07:48;;;;;;;6.90;4.40;;;;;;;16.15;69.88;99987.26;213529;1276;141274;-65
2022/06/16 21:12:53;;;;;;;6.00;5.50;;;;;;;15.90;69.71;99988.35;215764;1276;140508;-64
2022/06/16 21:18:00;;;;;;;5.70;4.50;;;;;;;15.66;70.12;99988.73;215957;1276;139620;-64
2022/06/16 21:23:05;;;;;;;4.40;4.10;;;;;;;15.64;70.45;99992.10;215628;1276;141139;-66
2022/06/16 21:28:13;;;;;;;5.10;4.40;;;;;;;15.66;70.56;99995.88;215700;1274;140885;-64
2022/06/16 21:33:18;;;;;;;4.10;3.80;;;;;;;15.68;70.59;100006.36;215840;1276;140582;-66
2022/06/16 21:38:23;;;;;;;5.00;4.70;;;;;;;15.67;70.57;100014.80;215902;1276;139634;-66
2022/06/16 21:43:27;;;;;;;4.40;4.10;;;;;;;15.51;70.30;100019.33;215427;1276;139543;-65
2022/06/16 21:48:32;;;;;;;5.40;5.00;;;;;;;15.35;70.72;100024.67;213723;1276;141573;-63
2022/06/16 21:53:40;;;;;;;9.50;5.70;;;;;;;15.30;71.06;100030.18;213662;1276;140703;-63
2022/06/16 21:58:46;;;;;;;7.20;4.80;;;;;;;15.21;70.87;100033.67;213169;1276;141062;-65
2022/06/16 22:03:50;;;;;;;6.20;4.80;;;;;;;15.09;71.06;100038.52;213397;1276;140632;-65
2022/06/16 22:08:54;;;;;;;5.40;5.00;;;;;;;15.00;71.31;100042.20;213668;1276;139831;-66
2022/06/16 22:13:58;;;;;;;6.50;6.00;;;;;;;14.92;71.41;100035.02;213398;1277;142111;-66
2022/06/16 22:19:02;;;;;;;5.80;5.30;;;;;;;14.85;71.53;100039.25;213384;1277;140590;-64
2022/06/16 22:24:08;;;;;;;5.70;5.30;;;;;;;14.83;71.74;100044.44;213689;1276;140950;-66
2022/06/16 22:29:14;;;;;;;6.40;5.90;;;;;;;14.84;71.84;100044.08;213823;1275;151857;-65
2022/06/16 22:34:18;;;;;;;6.10;5.70;;;;;;;14.71;71.87;100042.66;213541;1276;141507;-65
2022/06/16 22:44:46;;;;;;;8.30;7.70;;;;;;;14.50;72.18;100043.84;213505;1276;231382;-65
2022/06/16 22:49:51;;;;;;;8.80;7.10;;;;;;;14.45;72.08;100049.84;213338;1277;140152;-65
2022/06/16 23:00:27;;;;;;;8.10;7.30;;;;;;;14.24;72.34;100042.47;212965;1278;140941;-70
2022/06/16 23:05:35;;;;;;;7.80;7.20;;;;;;;14.16;72.57;100046.45;213378;1276;155303;-66
2022/06/16 23:10:45;;;;;;;8.20;7.60;;;;;;;14.13;72.80;100048.76;213400;1276;144658;-65
2022/06/16 23:15:51;;;;;;;6.90;6.20;;;;;;;14.12;73.16;100046.29;215988;1276;141989;-67
2022/06/16 23:20:55;;;;;;;6.70;6.20;;;;;;;14.11;72.93;100047.14;215844;1276;142786;-64
2022/06/16 23:26:00;;;;;;;7.10;6.50;;;;;;;13.92;72.55;100044.98;215840;1277;139838;-67
2022/06/16 23:31:04;;;;;;;7.30;6.80;;;;;;;13.73;72.65;100042.38;215627;1276;142625;-64
2022/06/16 23:36:21;;;;;;;7.20;6.50;;;;;;;13.68;73.00;100041.20;215773;1276;141617;-64
2022/06/16 23:41:27;;;;;;;9.60;6.70;;;;;;;13.69;73.19;100046.89;213768;1276;142580;-66
2022/06/16 23:46:31;;;;;;;8.00;7.30;;;;;;;13.73;73.45;100044.86;213769;1276;153798;-63
2022/06/16 23:51:37;;;;;;;10.30;8.20;;;;;;;13.78;73.80;100048.48;213358;1276;141543;-65
2022/06/16 23:56:41;;;;;;;9.00;7.20;;;;;;;13.82;73.84;100051.88;213832;1277;140853;-66
